createdAt,value
2022-10-31T00:00:28.465Z,14.15
2022-10-31T00:01:28.417Z,14.12
2022-10-31T00:02:28.466Z,14.11
2022-10-31T00:03:28.391Z,14.11
2022-10-31T00:04:28.386Z,14.12
2022-10-31T00:05:28.386Z,14.10
2022-10-31T00:06:28.343Z,14.10
2022-10-31T00:07:28.330Z,14.10
2022-10-31T00:08:28.348Z,14.07
2022-10-31T00:09:29.254Z,14.08
2022-10-31T00:10:28.304Z,14.05
2022-10-31T00:11:28.284Z,14.04
2022-10-31T00:12:28.351Z,14.00
2022-10-31T00:13:28.258Z,14.03
2022-10-31T00:14:28.265Z,14.00
2022-10-31T00:15:28.240Z,13.97
2022-10-31T00:16:28.228Z,13.96
2022-10-31T00:17:28.215Z,13.93
2022-10-31T00:18:28.241Z,13.92
2022-10-31T00:19:28.200Z,13.90
2022-10-31T00:20:28.187Z,13.90
2022-10-31T00:21:28.283Z,13.90
2022-10-31T00:22:28.182Z,13.89
2022-10-31T00:23:28.182Z,13.90
2022-10-31T00:24:28.137Z,13.87
2022-10-31T00:25:28.136Z,13.86
2022-10-31T00:26:28.138Z,13.86
2022-10-31T00:27:28.137Z,13.86
2022-10-31T00:28:28.091Z,13.86
2022-10-31T00:29:28.104Z,13.85
2022-10-31T00:30:28.080Z,13.79
2022-10-31T00:31:28.091Z,13.77
2022-10-31T00:32:28.048Z,13.75
2022-10-31T00:33:28.040Z,13.75
2022-10-31T00:34:28.022Z,13.72
2022-10-31T00:35:28.021Z,13.74
2022-10-31T00:36:28.031Z,13.75
2022-10-31T00:37:28.011Z,13.77
2022-10-31T00:38:27.985Z,13.79
2022-10-31T00:39:27.972Z,13.78
2022-10-31T00:40:27.952Z,13.77
2022-10-31T00:41:27.962Z,13.74
2022-10-31T00:42:27.953Z,13.74
2022-10-31T00:43:27.940Z,13.72
2022-10-31T00:44:27.913Z,13.72
2022-10-31T00:45:27.911Z,13.71
2022-10-31T00:46:27.912Z,13.71
2022-10-31T00:47:27.875Z,13.74
2022-10-31T00:48:27.899Z,13.71
2022-10-31T00:49:28.831Z,13.71
2022-10-31T00:50:27.842Z,13.71
2022-10-31T00:51:27.842Z,13.68
2022-10-31T00:52:27.815Z,13.70
2022-10-31T00:53:27.809Z,13.71
2022-10-31T00:54:27.824Z,13.70
2022-10-31T00:55:27.825Z,13.71
2022-10-31T00:56:27.777Z,13.72
2022-10-31T00:57:27.787Z,13.74
2022-10-31T00:58:27.746Z,13.74
2022-10-31T00:59:27.752Z,13.74
2022-10-31T01:00:27.728Z,13.74
2022-10-31T01:01:27.896Z,13.71
2022-10-31T01:02:27.849Z,13.70
2022-10-31T01:03:27.698Z,13.71
2022-10-31T01:04:27.707Z,13.70
2022-10-31T01:05:27.679Z,13.70
2022-10-31T01:06:27.700Z,13.71
2022-10-31T01:07:27.673Z,13.72
2022-10-31T01:08:28.597Z,13.71
2022-10-31T01:09:27.640Z,13.72
2022-10-31T01:10:27.617Z,13.72
2022-10-31T01:11:27.641Z,13.71
2022-10-31T01:12:27.611Z,13.70
2022-10-31T01:13:27.594Z,13.68
2022-10-31T01:14:27.584Z,13.68
2022-10-31T01:15:27.580Z,13.67
2022-10-31T01:16:27.591Z,13.67
2022-10-31T01:17:27.551Z,13.67
2022-10-31T01:18:27.531Z,13.67
2022-10-31T01:19:27.561Z,13.67
2022-10-31T01:20:27.512Z,13.65
2022-10-31T01:21:27.506Z,13.67
2022-10-31T01:22:27.506Z,13.67
2022-10-31T01:23:28.435Z,13.70
2022-10-31T01:24:27.468Z,13.67
2022-10-31T01:25:27.466Z,13.65
2022-10-31T01:26:27.448Z,13.63
2022-10-31T01:27:27.454Z,13.63
2022-10-31T01:28:27.436Z,13.65
2022-10-31T01:29:27.467Z,13.62
2022-10-31T01:30:27.396Z,13.65
2022-10-31T01:31:27.390Z,13.63
2022-10-31T01:32:27.383Z,13.67
2022-10-31T01:33:27.359Z,13.65
2022-10-31T01:34:27.381Z,13.67
2022-10-31T01:35:27.339Z,13.65
2022-10-31T01:36:27.331Z,13.65
2022-10-31T01:37:27.334Z,13.63
2022-10-31T01:38:27.307Z,13.63
2022-10-31T01:39:27.303Z,13.62
2022-10-31T01:40:27.328Z,13.60
2022-10-31T01:41:27.277Z,13.60
2022-10-31T01:42:27.258Z,13.60
2022-10-31T01:43:27.262Z,13.59
2022-10-31T01:44:27.232Z,13.56
2022-10-31T01:45:27.220Z,13.54
2022-10-31T01:46:27.253Z,13.52
2022-10-31T01:47:27.206Z,13.49
2022-10-31T01:48:27.190Z,13.46
2022-10-31T01:49:27.196Z,13.42
2022-10-31T01:50:27.161Z,13.39
2022-10-31T01:51:27.156Z,13.38
2022-10-31T01:52:27.161Z,13.35
2022-10-31T01:53:27.230Z,13.35
2022-10-31T01:54:27.134Z,13.33
2022-10-31T01:55:30.036Z,13.33
2022-10-31T01:56:27.097Z,13.30
2022-10-31T01:57:27.096Z,13.31
2022-10-31T01:58:27.088Z,13.31
2022-10-31T01:59:27.066Z,13.33
2022-10-31T02:00:27.071Z,13.33
2022-10-31T02:01:27.131Z,13.31
2022-10-31T02:02:27.085Z,13.30
2022-10-31T02:03:27.015Z,13.27
2022-10-31T02:04:27.019Z,13.25
2022-10-31T02:05:27.015Z,13.22
2022-10-31T02:06:27.938Z,13.19
2022-10-31T02:07:26.970Z,13.15
2022-10-31T02:08:26.967Z,13.12
2022-10-31T02:09:26.981Z,13.09
2022-10-31T02:10:26.968Z,13.05
2022-10-31T02:11:26.937Z,13.04
2022-10-31T02:12:26.915Z,13.05
2022-10-31T02:13:26.944Z,13.08
2022-10-31T02:14:26.889Z,13.08
2022-10-31T02:15:26.890Z,13.08
2022-10-31T02:16:26.879Z,13.09
2022-10-31T02:17:26.873Z,13.08
2022-10-31T02:18:26.849Z,13.05
2022-10-31T02:19:26.851Z,13.04
2022-10-31T02:20:26.817Z,13.04
2022-10-31T02:21:28.299Z,13.05
2022-10-31T02:22:26.794Z,13.05
2022-10-31T02:23:26.805Z,13.05
2022-10-31T02:24:26.776Z,13.09
2022-10-31T02:25:26.796Z,13.11
2022-10-31T02:26:26.742Z,13.12
2022-10-31T02:27:27.054Z,13.11
2022-10-31T02:28:26.731Z,13.11
2022-10-31T02:29:26.734Z,13.11
2022-10-31T02:30:26.705Z,13.12
2022-10-31T02:31:26.693Z,13.11
2022-10-31T02:32:26.693Z,13.11
2022-10-31T02:33:26.705Z,13.12
2022-10-31T02:34:26.655Z,13.12
2022-10-31T02:35:26.676Z,13.12
2022-10-31T02:36:26.645Z,13.13
2022-10-31T02:37:26.668Z,13.12
2022-10-31T02:38:26.635Z,13.12
2022-10-31T02:39:26.624Z,13.11
2022-10-31T02:40:26.589Z,13.11
2022-10-31T02:41:26.578Z,13.09
2022-10-31T02:42:26.627Z,13.05
2022-10-31T02:43:26.595Z,13.03
2022-10-31T02:44:26.537Z,13.01
2022-10-31T02:45:26.541Z,13.00
2022-10-31T02:46:26.546Z,12.98
2022-10-31T02:47:26.550Z,12.97
2022-10-31T02:48:26.541Z,12.97
2022-10-31T02:49:26.494Z,12.98
2022-10-31T02:50:26.482Z,12.97
2022-10-31T02:51:26.480Z,12.97
2022-10-31T02:52:26.476Z,12.95
2022-10-31T02:53:26.448Z,12.95
2022-10-31T02:54:26.468Z,12.95
2022-10-31T02:55:26.438Z,12.93
2022-10-31T02:56:26.430Z,12.93
2022-10-31T02:57:26.409Z,12.91
2022-10-31T02:58:26.400Z,12.87
2022-10-31T02:59:26.375Z,12.87
2022-10-31T03:00:26.389Z,12.90
2022-10-31T03:01:26.452Z,12.87
2022-10-31T03:02:26.536Z,12.87
2022-10-31T03:03:26.353Z,12.90
2022-10-31T03:04:26.325Z,12.87
2022-10-31T03:05:26.314Z,12.87
2022-10-31T03:06:26.300Z,12.87
2022-10-31T03:07:26.325Z,12.90
2022-10-31T03:08:26.293Z,12.90
2022-10-31T03:09:26.277Z,12.90
2022-10-31T03:10:26.253Z,12.87
2022-10-31T03:11:26.248Z,12.86
2022-10-31T03:12:26.237Z,12.83
2022-10-31T03:13:26.239Z,12.82
2022-10-31T03:14:26.218Z,12.82
2022-10-31T03:15:26.206Z,12.80
2022-10-31T03:16:26.192Z,12.80
2022-10-31T03:17:26.210Z,12.80
2022-10-31T03:18:26.173Z,12.79
2022-10-31T03:19:26.169Z,12.80
2022-10-31T03:20:26.148Z,12.79
2022-10-31T03:21:26.143Z,12.78
2022-10-31T03:22:26.141Z,12.75
2022-10-31T03:23:26.128Z,12.72
2022-10-31T03:24:26.100Z,12.70
2022-10-31T03:25:26.099Z,12.68
2022-10-31T03:26:26.081Z,12.67
2022-10-31T03:27:26.106Z,12.68
2022-10-31T03:28:26.051Z,12.67
2022-10-31T03:29:26.049Z,12.65
2022-10-31T03:30:26.036Z,12.64
2022-10-31T03:31:26.020Z,12.61
2022-10-31T03:32:26.019Z,12.60
2022-10-31T03:33:26.041Z,12.57
2022-10-31T03:34:26.941Z,12.50
2022-10-31T03:35:25.981Z,12.49
2022-10-31T03:36:25.984Z,12.43
2022-10-31T03:37:25.971Z,12.40
2022-10-31T03:38:25.941Z,12.37
2022-10-31T03:39:25.957Z,12.35
2022-10-31T03:40:25.908Z,12.32
2022-10-31T03:41:26.877Z,12.31
2022-10-31T03:42:25.902Z,12.31
2022-10-31T03:43:25.918Z,12.29
2022-10-31T03:44:25.888Z,12.28
2022-10-31T03:45:25.853Z,12.31
2022-10-31T03:46:25.866Z,12.32
2022-10-31T03:47:25.844Z,12.36
2022-10-31T03:48:25.858Z,12.36
2022-10-31T03:49:25.824Z,12.37
2022-10-31T03:50:25.825Z,12.37
2022-10-31T03:51:25.814Z,12.37
2022-10-31T03:52:25.781Z,12.36
2022-10-31T03:53:25.777Z,12.32
2022-10-31T03:54:25.756Z,12.31
2022-10-31T03:55:25.784Z,12.29
2022-10-31T03:56:25.727Z,12.28
2022-10-31T03:57:25.731Z,12.27
2022-10-31T03:58:25.739Z,12.27
2022-10-31T03:59:25.703Z,12.28
2022-10-31T04:00:25.719Z,12.29
2022-10-31T04:01:25.862Z,12.29
2022-10-31T04:02:25.822Z,12.31
2022-10-31T04:03:25.667Z,12.29
2022-10-31T04:04:25.646Z,12.29
2022-10-31T04:05:25.639Z,12.29
2022-10-31T04:06:25.641Z,12.25
2022-10-31T04:07:25.644Z,12.25
2022-10-31T04:08:25.618Z,12.29
2022-10-31T04:09:25.593Z,12.31
2022-10-31T04:10:31.862Z,12.32
2022-10-31T04:11:26.570Z,12.32
2022-10-31T04:12:25.562Z,12.32
2022-10-31T04:13:25.560Z,12.31
2022-10-31T04:14:25.544Z,12.32
2022-10-31T04:15:25.558Z,12.32
2022-10-31T04:16:25.511Z,12.35
2022-10-31T04:17:25.531Z,12.32
2022-10-31T04:18:25.513Z,12.29
2022-10-31T04:19:25.501Z,12.29
2022-10-31T04:20:25.493Z,12.25
2022-10-31T04:21:25.512Z,12.27
2022-10-31T04:22:25.444Z,12.28
2022-10-31T04:23:25.454Z,12.27
2022-10-31T04:24:25.461Z,12.27
2022-10-31T04:25:25.456Z,12.25
2022-10-31T04:26:25.404Z,12.25
2022-10-31T04:27:25.459Z,12.22
2022-10-31T04:28:25.401Z,12.21
2022-10-31T04:29:25.386Z,12.20
2022-10-31T04:30:25.374Z,12.18
2022-10-31T04:31:25.366Z,12.15
2022-10-31T04:32:25.348Z,12.13
2022-10-31T04:33:25.365Z,12.12
2022-10-31T04:34:26.278Z,12.13
2022-10-31T04:35:25.310Z,12.12
2022-10-31T04:36:25.329Z,12.13
2022-10-31T04:37:25.298Z,12.17
2022-10-31T04:38:25.277Z,12.17
2022-10-31T04:39:26.772Z,12.20
2022-10-31T04:40:25.266Z,12.22
2022-10-31T04:41:25.247Z,12.22
2022-10-31T04:42:25.241Z,12.28
2022-10-31T04:43:25.224Z,12.28
2022-10-31T04:44:25.213Z,12.28
2022-10-31T04:45:25.240Z,12.28
2022-10-31T04:46:25.190Z,12.27
2022-10-31T04:47:25.190Z,12.28
2022-10-31T04:48:25.192Z,12.28
2022-10-31T04:49:25.170Z,12.27
2022-10-31T04:50:25.151Z,12.28
2022-10-31T04:51:25.161Z,12.28
2022-10-31T04:52:25.141Z,12.29
2022-10-31T04:53:25.119Z,12.31
2022-10-31T04:54:25.111Z,12.32
2022-10-31T04:55:25.086Z,12.32
2022-10-31T04:56:25.100Z,12.29
2022-10-31T04:57:25.092Z,12.28
2022-10-31T04:58:25.085Z,12.25
2022-10-31T04:59:25.052Z,12.22
2022-10-31T05:00:25.046Z,12.20
2022-10-31T05:01:25.107Z,12.18
2022-10-31T05:02:25.112Z,12.18
2022-10-31T05:03:25.035Z,12.18
2022-10-31T05:04:25.383Z,12.17
2022-10-31T05:05:25.143Z,12.17
2022-10-31T05:06:24.974Z,12.18
2022-10-31T05:07:24.968Z,12.18
2022-10-31T05:08:24.990Z,12.20
2022-10-31T05:09:24.965Z,12.21
2022-10-31T05:10:24.978Z,12.20
2022-10-31T05:11:24.918Z,12.17
2022-10-31T05:12:24.914Z,12.15
2022-10-31T05:13:24.898Z,12.12
2022-10-31T05:14:24.957Z,12.09
2022-10-31T05:15:24.878Z,12.07
2022-10-31T05:16:25.827Z,12.06
2022-10-31T05:17:24.851Z,12.07
2022-10-31T05:18:24.837Z,12.06
2022-10-31T05:19:24.827Z,12.04
2022-10-31T05:20:24.819Z,12.02
2022-10-31T05:21:24.821Z,12.02
2022-10-31T05:22:24.802Z,11.99
2022-10-31T05:23:24.870Z,11.99
2022-10-31T05:24:24.775Z,11.97
2022-10-31T05:25:24.761Z,11.94
2022-10-31T05:26:24.770Z,11.91
2022-10-31T05:27:24.739Z,11.90
2022-10-31T05:28:24.761Z,11.88
2022-10-31T05:29:24.711Z,11.87
2022-10-31T05:30:24.711Z,11.88
2022-10-31T05:31:24.701Z,11.86
2022-10-31T05:32:24.701Z,11.88
2022-10-31T05:33:24.664Z,11.88
2022-10-31T05:34:24.676Z,11.90
2022-10-31T05:35:24.647Z,11.90
2022-10-31T05:36:24.644Z,11.90
2022-10-31T05:37:24.625Z,11.90
2022-10-31T05:38:24.744Z,11.90
2022-10-31T05:39:25.582Z,11.90
2022-10-31T05:40:24.624Z,11.91
2022-10-31T05:41:24.596Z,11.91
2022-10-31T05:42:24.659Z,11.94
2022-10-31T05:43:24.554Z,11.91
2022-10-31T05:44:24.567Z,11.91
2022-10-31T05:45:24.607Z,11.91
2022-10-31T05:46:24.637Z,11.90
2022-10-31T05:47:24.595Z,11.90
2022-10-31T05:48:24.504Z,11.86
2022-10-31T05:49:24.514Z,11.83
2022-10-31T05:50:24.509Z,11.80
2022-10-31T05:51:24.463Z,11.78
2022-10-31T05:52:24.466Z,11.80
2022-10-31T05:53:24.436Z,11.80
2022-10-31T05:54:24.479Z,11.81
2022-10-31T05:55:24.438Z,11.81
2022-10-31T05:56:24.444Z,11.81
2022-10-31T05:57:24.395Z,11.83
2022-10-31T05:58:24.377Z,11.84
2022-10-31T05:59:24.380Z,11.87
2022-10-31T06:00:24.383Z,11.87
2022-10-31T06:01:24.426Z,11.88
2022-10-31T06:02:24.384Z,11.88
2022-10-31T06:03:24.319Z,11.86
2022-10-31T06:04:24.400Z,11.81
2022-10-31T06:05:24.304Z,11.81
2022-10-31T06:06:24.296Z,11.80
2022-10-31T06:07:24.290Z,11.80
2022-10-31T06:08:24.326Z,11.80
2022-10-31T06:09:24.294Z,11.78
2022-10-31T06:10:24.252Z,11.81
2022-10-31T06:11:24.253Z,11.83
2022-10-31T06:12:24.238Z,11.86
2022-10-31T06:13:24.235Z,11.86
2022-10-31T06:14:24.211Z,11.84
2022-10-31T06:15:24.909Z,11.83
2022-10-31T06:16:24.213Z,11.81
2022-10-31T06:17:24.172Z,11.77
2022-10-31T06:18:24.202Z,11.77
2022-10-31T06:19:24.175Z,11.75
2022-10-31T06:20:24.137Z,11.70
2022-10-31T06:21:24.125Z,11.68
2022-10-31T06:22:24.114Z,11.65
2022-10-31T06:23:24.124Z,11.63
2022-10-31T06:24:24.132Z,11.66
2022-10-31T06:25:24.081Z,11.68
2022-10-31T06:26:24.076Z,11.66
2022-10-31T06:27:24.056Z,11.66
2022-10-31T06:28:24.057Z,11.66
2022-10-31T06:29:24.259Z,11.65
2022-10-31T06:30:24.226Z,11.65
2022-10-31T06:31:24.016Z,11.65
2022-10-31T06:32:24.051Z,11.65
2022-10-31T06:33:24.240Z,11.65
2022-10-31T06:34:23.999Z,11.63
2022-10-31T06:35:24.003Z,11.63
2022-10-31T06:36:24.023Z,11.62
2022-10-31T06:37:23.959Z,11.62
2022-10-31T06:38:23.928Z,11.63
2022-10-31T06:39:23.934Z,11.63
2022-10-31T06:40:23.939Z,11.62
2022-10-31T06:41:23.927Z,11.63
2022-10-31T06:42:23.909Z,11.63
2022-10-31T06:43:23.913Z,11.63
2022-10-31T06:44:23.878Z,11.63
2022-10-31T06:45:23.851Z,11.62
2022-10-31T06:46:25.331Z,11.63
2022-10-31T06:47:23.879Z,11.62
2022-10-31T06:48:24.184Z,11.65
2022-10-31T06:49:23.811Z,11.65
2022-10-31T06:50:23.832Z,11.66
2022-10-31T06:51:24.052Z,11.66
2022-10-31T06:52:23.814Z,11.65
2022-10-31T06:53:23.792Z,11.63
2022-10-31T06:54:23.759Z,11.63
2022-10-31T06:55:23.758Z,11.62
2022-10-31T06:56:23.728Z,11.59
2022-10-31T06:57:23.752Z,11.59
2022-10-31T06:58:23.718Z,11.59
2022-10-31T06:59:23.729Z,11.60
2022-10-31T07:00:24.691Z,11.63
2022-10-31T07:01:23.813Z,11.68
2022-10-31T07:02:23.734Z,11.75
2022-10-31T07:03:23.656Z,11.86
2022-10-31T07:04:23.697Z,11.94
2022-10-31T07:05:23.630Z,11.99
2022-10-31T07:06:23.630Z,12.06
2022-10-31T07:07:23.623Z,12.09
2022-10-31T07:08:23.600Z,12.17
2022-10-31T07:09:23.602Z,12.22
2022-10-31T07:10:23.639Z,12.29
2022-10-31T07:11:23.583Z,12.32
2022-10-31T07:12:23.557Z,12.36
2022-10-31T07:13:23.559Z,12.36
2022-10-31T07:14:23.540Z,12.31
2022-10-31T07:15:23.529Z,12.24
2022-10-31T07:16:24.459Z,12.21
2022-10-31T07:17:28.744Z,12.17
2022-10-31T07:18:24.519Z,12.17
2022-10-31T07:19:23.478Z,12.13
2022-10-31T07:20:23.479Z,12.12
2022-10-31T07:21:23.437Z,12.17
2022-10-31T07:22:23.446Z,12.22
2022-10-31T07:23:24.386Z,12.27
2022-10-31T07:24:23.481Z,12.31
2022-10-31T07:25:23.405Z,12.32
2022-10-31T07:26:23.420Z,12.31
2022-10-31T07:27:23.369Z,12.27
2022-10-31T07:28:23.381Z,12.24
2022-10-31T07:29:23.363Z,12.27
2022-10-31T07:30:23.503Z,12.31
2022-10-31T07:31:23.561Z,12.37
2022-10-31T07:32:23.357Z,12.43
2022-10-31T07:33:23.314Z,12.50
2022-10-31T07:34:23.302Z,12.54
2022-10-31T07:35:23.364Z,12.54
2022-10-31T07:36:23.281Z,12.53
2022-10-31T07:37:23.293Z,12.50
2022-10-31T07:38:23.274Z,12.47
2022-10-31T07:39:23.233Z,12.49
2022-10-31T07:40:23.226Z,12.47
2022-10-31T07:41:23.216Z,12.47
2022-10-31T07:42:23.224Z,12.46
2022-10-31T07:43:23.491Z,12.47
2022-10-31T07:44:23.226Z,12.47
2022-10-31T07:45:23.173Z,12.47
2022-10-31T07:46:23.169Z,12.45
2022-10-31T07:47:23.163Z,12.40
2022-10-31T07:48:23.147Z,12.39
2022-10-31T07:49:23.138Z,12.37
2022-10-31T07:50:23.611Z,12.36
2022-10-31T07:51:23.149Z,12.39
2022-10-31T07:52:23.105Z,12.37
2022-10-31T07:53:23.099Z,12.36
2022-10-31T07:54:23.082Z,12.37
2022-10-31T07:55:23.094Z,12.37
2022-10-31T07:56:23.065Z,12.36
2022-10-31T07:57:25.170Z,12.37
2022-10-31T07:58:23.055Z,12.40
2022-10-31T07:59:23.988Z,12.40
2022-10-31T08:00:23.003Z,12.43
2022-10-31T08:01:23.017Z,12.45
2022-10-31T08:02:23.036Z,12.47
2022-10-31T08:03:22.972Z,12.49
2022-10-31T08:04:22.974Z,12.50
2022-10-31T08:05:22.972Z,12.53
2022-10-31T08:06:22.951Z,12.53
2022-10-31T08:07:22.999Z,12.54
2022-10-31T08:08:22.936Z,12.55
2022-10-31T08:09:22.905Z,12.55
2022-10-31T08:10:22.893Z,12.58
2022-10-31T08:11:22.883Z,12.60
2022-10-31T08:12:22.895Z,12.60
2022-10-31T08:13:22.891Z,12.62
2022-10-31T08:14:22.897Z,12.65
2022-10-31T08:15:22.845Z,12.68
2022-10-31T08:16:22.829Z,12.72
2022-10-31T08:17:24.280Z,12.73
2022-10-31T08:18:22.829Z,12.75
2022-10-31T08:19:22.815Z,12.75
2022-10-31T08:20:22.828Z,12.79
2022-10-31T08:21:22.776Z,12.83
2022-10-31T08:22:22.782Z,12.86
2022-10-31T08:23:22.748Z,12.86
2022-10-31T08:24:22.748Z,12.91
2022-10-31T08:25:22.724Z,12.95
2022-10-31T08:26:22.742Z,13.01
2022-10-31T08:27:22.722Z,13.04
2022-10-31T08:28:22.751Z,13.11
2022-10-31T08:29:22.747Z,13.12
2022-10-31T08:30:22.679Z,13.18
2022-10-31T08:31:22.697Z,13.22
2022-10-31T08:32:22.750Z,13.27
2022-10-31T08:33:23.601Z,13.31
2022-10-31T08:34:22.673Z,13.37
2022-10-31T08:35:22.620Z,13.41
2022-10-31T08:36:23.589Z,13.42
2022-10-31T08:37:22.601Z,13.44
2022-10-31T08:38:22.714Z,13.47
2022-10-31T08:39:22.614Z,13.49
2022-10-31T08:40:22.608Z,13.53
2022-10-31T08:41:22.563Z,13.57
2022-10-31T08:42:22.553Z,13.63
2022-10-31T08:43:23.487Z,13.67
2022-10-31T08:44:22.552Z,13.70
2022-10-31T08:45:22.504Z,13.72
2022-10-31T08:46:22.511Z,13.75
2022-10-31T08:47:22.491Z,13.78
2022-10-31T08:48:22.482Z,13.83
2022-10-31T08:49:22.473Z,13.85
2022-10-31T08:50:22.486Z,13.87
2022-10-31T08:51:22.433Z,13.92
2022-10-31T08:52:29.381Z,13.95
2022-10-31T08:53:23.417Z,13.96
2022-10-31T08:54:22.405Z,14.03
2022-10-31T08:55:22.397Z,14.04
2022-10-31T08:56:22.409Z,14.08
2022-10-31T08:57:22.379Z,14.11
2022-10-31T08:58:22.353Z,14.14
2022-10-31T08:59:22.349Z,14.15
2022-10-31T09:00:22.338Z,14.20
2022-10-31T09:01:22.498Z,14.22
2022-10-31T09:02:22.433Z,14.23
2022-10-31T09:03:22.301Z,14.23
2022-10-31T09:04:22.284Z,14.26
2022-10-31T09:05:22.288Z,14.29
2022-10-31T09:06:22.339Z,14.30
2022-10-31T09:07:22.280Z,14.33
2022-10-31T09:08:22.236Z,14.35
2022-10-31T09:09:22.222Z,14.37
2022-10-31T09:10:22.269Z,14.40
2022-10-31T09:11:22.248Z,14.43
2022-10-31T09:12:22.224Z,14.45
2022-10-31T09:13:24.180Z,14.45
2022-10-31T09:14:22.181Z,14.50
2022-10-31T09:15:22.162Z,14.51
2022-10-31T09:16:22.196Z,14.53
2022-10-31T09:17:22.154Z,14.58
2022-10-31T09:18:22.158Z,14.62
2022-10-31T09:19:22.126Z,14.63
2022-10-31T09:20:22.171Z,14.66
2022-10-31T09:21:22.123Z,14.70
2022-10-31T09:22:22.085Z,14.72
2022-10-31T09:23:22.085Z,14.73
2022-10-31T09:24:22.123Z,14.79
2022-10-31T09:25:22.058Z,14.82
2022-10-31T09:26:22.026Z,14.85
2022-10-31T09:27:22.080Z,14.89
2022-10-31T09:28:22.112Z,14.94
2022-10-31T09:29:22.193Z,14.96
2022-10-31T09:30:22.084Z,15.00
2022-10-31T09:31:21.976Z,15.03
2022-10-31T09:32:21.966Z,15.07
2022-10-31T09:33:21.988Z,15.09
2022-10-31T09:34:21.938Z,15.14
2022-10-31T09:35:24.840Z,15.15
2022-10-31T09:36:21.940Z,15.17
2022-10-31T09:37:21.909Z,15.19
2022-10-31T09:38:21.932Z,15.22
2022-10-31T09:39:21.890Z,15.27
2022-10-31T09:40:21.982Z,15.28
2022-10-31T09:41:21.947Z,15.31
2022-10-31T09:42:21.850Z,15.35
2022-10-31T09:43:21.869Z,15.37
2022-10-31T09:44:21.840Z,15.40
2022-10-31T09:45:21.842Z,15.44
2022-10-31T09:46:21.844Z,15.44
2022-10-31T09:47:21.801Z,15.51
2022-10-31T09:48:21.797Z,15.54
2022-10-31T09:49:21.814Z,15.57
2022-10-31T09:50:21.944Z,15.61
2022-10-31T09:51:21.764Z,15.64
2022-10-31T09:52:21.770Z,15.68
2022-10-31T09:53:21.737Z,15.72
2022-10-31T09:54:21.715Z,15.76
2022-10-31T09:55:21.730Z,15.80
2022-10-31T09:56:21.793Z,15.86
2022-10-31T09:57:21.708Z,15.91
2022-10-31T09:58:21.678Z,15.98
2022-10-31T09:59:21.685Z,16.04
2022-10-31T10:00:22.610Z,16.13
2022-10-31T10:01:21.800Z,16.17
2022-10-31T10:02:21.744Z,16.24
2022-10-31T10:03:21.624Z,16.31
2022-10-31T10:04:21.619Z,16.35
2022-10-31T10:05:21.607Z,16.39
2022-10-31T10:06:21.577Z,16.43
2022-10-31T10:07:21.621Z,16.49
2022-10-31T10:08:21.568Z,16.54
2022-10-31T10:10:21.592Z,16.58
2022-10-31T10:11:21.539Z,16.65
2022-10-31T10:12:21.521Z,16.66
2022-10-31T10:13:21.527Z,16.72
2022-10-31T10:14:21.496Z,16.75
2022-10-31T10:15:21.485Z,16.79
2022-10-31T10:16:21.489Z,16.81
2022-10-31T10:17:21.475Z,16.86
2022-10-31T10:18:21.489Z,16.87
2022-10-31T10:19:21.466Z,16.89
2022-10-31T10:20:21.526Z,16.93
2022-10-31T10:21:21.425Z,16.96
2022-10-31T10:22:21.410Z,16.99
2022-10-31T10:23:21.418Z,17.01
2022-10-31T10:24:21.418Z,17.04
2022-10-31T10:25:21.374Z,17.02
2022-10-31T10:26:21.436Z,17.06
2022-10-31T10:27:23.365Z,17.09
2022-10-31T10:28:22.296Z,17.12
2022-10-31T10:29:21.367Z,17.16
2022-10-31T10:30:21.311Z,17.22
2022-10-31T10:31:21.317Z,17.23
2022-10-31T10:32:21.294Z,17.26
2022-10-31T10:33:21.285Z,17.27
2022-10-31T10:34:21.278Z,17.27
2022-10-31T10:35:21.296Z,17.29
2022-10-31T10:36:21.244Z,17.31
2022-10-31T10:37:21.235Z,17.34
2022-10-31T10:38:21.220Z,17.36
2022-10-31T10:39:21.215Z,17.39
2022-10-31T10:40:21.219Z,17.42
2022-10-31T10:41:21.233Z,17.44
2022-10-31T10:42:21.349Z,17.46
2022-10-31T10:43:21.175Z,17.49
2022-10-31T10:44:21.160Z,17.49
2022-10-31T10:45:21.152Z,17.51
2022-10-31T10:46:21.140Z,17.51
2022-10-31T10:47:21.151Z,17.54
2022-10-31T10:48:21.109Z,17.59
2022-10-31T10:49:21.148Z,17.59
2022-10-31T10:50:21.090Z,17.63
2022-10-31T10:51:31.854Z,17.65
2022-10-31T10:53:22.053Z,17.74
2022-10-31T10:54:21.043Z,17.79
2022-10-31T10:55:21.079Z,17.83
2022-10-31T10:56:21.019Z,17.85
2022-10-31T10:57:21.019Z,17.87
2022-10-31T10:58:21.005Z,17.92
2022-10-31T10:59:21.002Z,17.95
2022-10-31T11:00:21.023Z,17.98
2022-10-31T11:01:20.968Z,18.01
2022-10-31T11:02:21.005Z,18.03
2022-10-31T11:03:20.952Z,18.07
2022-10-31T11:04:21.055Z,18.07
2022-10-31T11:05:20.923Z,18.10
2022-10-31T11:06:20.933Z,18.11
2022-10-31T11:07:20.894Z,18.13
2022-10-31T11:08:24.811Z,18.15
2022-10-31T11:09:21.885Z,18.16
2022-10-31T11:10:20.888Z,18.18
2022-10-31T11:11:20.866Z,18.19
2022-10-31T11:12:21.195Z,18.22
2022-10-31T11:13:20.838Z,18.22
2022-10-31T11:14:20.820Z,18.23
2022-10-31T11:15:20.857Z,18.25
2022-10-31T11:16:20.827Z,18.29
2022-10-31T11:17:20.880Z,18.29
2022-10-31T11:18:20.845Z,18.34
2022-10-31T11:19:20.795Z,18.35
2022-10-31T11:20:22.711Z,18.38
2022-10-31T11:21:20.784Z,18.41
2022-10-31T11:22:20.741Z,18.45
2022-10-31T11:23:20.736Z,18.49
2022-10-31T11:24:20.703Z,18.50
2022-10-31T11:25:20.705Z,18.55
2022-10-31T11:26:20.686Z,18.56
2022-10-31T11:27:20.742Z,18.59
2022-10-31T11:28:20.702Z,18.62
2022-10-31T11:29:20.655Z,18.63
2022-10-31T11:30:20.656Z,18.66
2022-10-31T11:31:20.662Z,18.68
2022-10-31T11:32:20.643Z,18.70
2022-10-31T11:33:20.606Z,18.71
2022-10-31T11:34:20.617Z,18.71
2022-10-31T11:35:20.605Z,18.71
2022-10-31T11:36:20.671Z,18.74
2022-10-31T11:37:20.592Z,18.75
2022-10-31T11:38:20.555Z,18.75
2022-10-31T11:39:20.546Z,18.75
2022-10-31T11:40:20.591Z,18.78
2022-10-31T11:41:20.524Z,18.80
2022-10-31T11:42:20.525Z,18.81
2022-10-31T11:43:20.504Z,18.84
2022-10-31T11:44:20.508Z,18.86
2022-10-31T11:45:20.512Z,18.88
2022-10-31T11:46:20.471Z,18.89
2022-10-31T11:47:20.474Z,18.90
2022-10-31T11:48:20.436Z,18.92
2022-10-31T11:49:20.429Z,18.92
2022-10-31T11:50:20.423Z,18.92
2022-10-31T11:51:20.441Z,18.92
2022-10-31T11:52:20.440Z,18.90
2022-10-31T11:53:20.375Z,18.90
2022-10-31T11:54:20.368Z,18.90
2022-10-31T11:55:20.376Z,18.92
2022-10-31T11:56:20.341Z,18.93
2022-10-31T11:57:20.342Z,18.93
2022-10-31T11:58:21.271Z,18.93
2022-10-31T11:59:20.333Z,18.95
2022-10-31T12:00:20.459Z,18.95
2022-10-31T12:01:20.324Z,18.93
2022-10-31T12:02:20.347Z,18.95
2022-10-31T12:03:20.272Z,18.96
2022-10-31T12:04:20.884Z,18.98
2022-10-31T12:05:20.246Z,19.00
2022-10-31T12:06:20.249Z,19.02
2022-10-31T12:07:20.224Z,19.04
2022-10-31T12:08:20.274Z,19.07
2022-10-31T12:09:20.209Z,19.11
2022-10-31T12:10:21.358Z,19.14
2022-10-31T12:11:21.637Z,19.15
2022-10-31T12:12:20.189Z,19.16
2022-10-31T12:13:20.186Z,19.19
2022-10-31T12:14:20.182Z,19.22
2022-10-31T12:15:20.172Z,19.24
2022-10-31T12:16:20.162Z,19.27
2022-10-31T12:17:20.208Z,19.31
2022-10-31T12:18:20.146Z,19.37
2022-10-31T12:19:20.132Z,19.39
2022-10-31T12:20:20.098Z,19.41
2022-10-31T12:21:20.084Z,19.45
2022-10-31T12:22:20.049Z,19.48
2022-10-31T12:23:20.090Z,19.52
2022-10-31T12:24:20.064Z,19.55
2022-10-31T12:25:20.068Z,19.58
2022-10-31T12:26:20.021Z,19.62
2022-10-31T12:27:20.035Z,19.64
2022-10-31T12:28:20.045Z,19.67
2022-10-31T12:29:20.016Z,19.70
2022-10-31T12:30:20.923Z,19.71
2022-10-31T12:31:19.958Z,19.76
2022-10-31T12:32:19.933Z,19.81
2022-10-31T12:33:19.966Z,19.84
2022-10-31T12:34:19.945Z,19.91
2022-10-31T12:35:19.926Z,19.95
2022-10-31T12:36:19.894Z,20.00
2022-10-31T12:37:19.913Z,20.04
2022-10-31T12:38:19.881Z,20.11
2022-10-31T12:39:19.898Z,20.14
2022-10-31T12:40:19.849Z,20.21
2022-10-31T12:41:19.939Z,20.26
2022-10-31T12:42:19.887Z,20.31
2022-10-31T12:43:19.846Z,20.39
2022-10-31T12:44:20.778Z,20.44
2022-10-31T12:45:19.906Z,20.50
2022-10-31T12:46:19.777Z,20.56
2022-10-31T12:47:19.808Z,20.62
2022-10-31T12:48:19.764Z,20.65
2022-10-31T12:49:19.873Z,20.69
2022-10-31T12:50:19.768Z,20.72
2022-10-31T12:51:19.730Z,20.75
2022-10-31T12:52:19.720Z,20.78
2022-10-31T12:54:19.720Z,20.84
2022-10-31T12:55:19.693Z,20.88